sensor_id;sensor_type;location;lat;lon;timestamp;pressure;altitude;pressure_sealevel;temperature;humidity
20119;BME280;10220;42.716;23.306;2023-02-19T00:01:38;95578.19;;;8.18;96.30
20119;BME280;10220;42.716;23.306;2023-02-19T00:04:08;95574.81;;;7.95;95.58
20119;BME280;10220;42.716;23.306;2023-02-19T00:06:34;95582.31;;;8.05;95.47
20119;BME280;10220;42.716;23.306;2023-02-19T00:09:00;95551.44;;;7.82;96.26
20119;BME280;10220;42.716;23.306;2023-02-19T00:11:28;95565.97;;;8.26;93.76
20119;BME280;10220;42.716;23.306;2023-02-19T00:13:55;95553.50;;;8.01;93.89
20119;BME280;10220;42.716;23.306;2023-02-19T00:16:25;95566.06;;;8.18;93.50
20119;BME280;10220;42.716;23.306;2023-02-19T00:18:52;95569.50;;;7.97;94.69
20119;BME280;10220;42.716;23.306;2023-02-19T00:21:18;95545.66;;;8.09;93.48
20119;BME280;10220;42.716;23.306;2023-02-19T00:23:48;95552.31;;;8.04;92.77
20119;BME280;10220;42.716;23.306;2023-02-19T00:26:14;95555.66;;;8.26;92.25
20119;BME280;10220;42.716;23.306;2023-02-19T00:28:40;95559.91;;;8.34;91.35
20119;BME280;10220;42.716;23.306;2023-02-19T00:31:15;95534.56;;;8.23;90.57
20119;BME280;10220;42.716;23.306;2023-02-19T00:33:42;95557.94;;;8.36;90.19
20119;BME280;10220;42.716;23.306;2023-02-19T00:36:07;95484.66;;;8.16;89.54
20119;BME280;10220;42.716;23.306;2023-02-19T00:38:38;95549.38;;;8.50;89.45
20119;BME280;10220;42.716;23.306;2023-02-19T00:41:05;95546.03;;;8.49;88.97
20119;BME280;10220;42.716;23.306;2023-02-19T00:44:02;95513.81;;;8.17;89.52
20119;BME280;10220;42.716;23.306;2023-02-19T00:46:29;95540.16;;;8.26;90.55
20119;BME280;10220;42.716;23.306;2023-02-19T00:48:56;95531.97;;;7.94;91.56
20119;BME280;10220;42.716;23.306;2023-02-19T00:51:24;95519.25;;;8.07;91.26
20119;BME280;10220;42.716;23.306;2023-02-19T00:53:50;95521.31;;;8.26;90.88
20119;BME280;10220;42.716;23.306;2023-02-19T00:56:16;95503.69;;;8.01;91.42
20119;BME280;10220;42.716;23.306;2023-02-19T00:58:42;95458.88;;;7.58;92.62
20119;BME280;10220;42.716;23.306;2023-02-19T01:01:09;95525.38;;;7.92;93.31
20119;BME280;10220;42.716;23.306;2023-02-19T01:03:35;95539.09;;;8.07;93.15
20119;BME280;10220;42.716;23.306;2023-02-19T01:06:02;95506.81;;;7.82;92.46
20119;BME280;10220;42.716;23.306;2023-02-19T01:08:28;95534.63;;;8.01;92.68
20119;BME280;10220;42.716;23.306;2023-02-19T01:10:55;95469.09;;;7.81;91.23
20119;BME280;10220;42.716;23.306;2023-02-19T01:13:20;95537.66;;;8.04;91.75
20119;BME280;10220;42.716;23.306;2023-02-19T01:15:46;95486.00;;;7.55;94.06
20119;BME280;10220;42.716;23.306;2023-02-19T01:18:11;95532.13;;;8.07;93.22
20119;BME280;10220;42.716;23.306;2023-02-19T01:20:43;95523.06;;;7.97;93.42
20119;BME280;10220;42.716;23.306;2023-02-19T01:23:12;95523.88;;;8.12;93.17
20119;BME280;10220;42.716;23.306;2023-02-19T01:25:39;95517.34;;;7.72;95.14
20119;BME280;10220;42.716;23.306;2023-02-19T01:28:05;95533.56;;;7.81;95.36
20119;BME280;10220;42.716;23.306;2023-02-19T01:30:33;95524.09;;;7.59;95.95
20119;BME280;10220;42.716;23.306;2023-02-19T01:32:59;95502.16;;;7.49;96.02
20119;BME280;10220;42.716;23.306;2023-02-19T01:35:24;95509.97;;;7.55;96.63
20119;BME280;10220;42.716;23.306;2023-02-19T01:37:50;95514.94;;;7.42;97.53
20119;BME280;10220;42.716;23.306;2023-02-19T01:40:15;95545.59;;;7.52;98.06
20119;BME280;10220;42.716;23.306;2023-02-19T01:42:42;95526.66;;;7.08;100.00
20119;BME280;10220;42.716;23.306;2023-02-19T01:45:28;95552.69;;;7.35;100.00
20119;BME280;10220;42.716;23.306;2023-02-19T01:48:21;95548.53;;;7.49;100.00
20119;BME280;10220;42.716;23.306;2023-02-19T01:50:51;95529.03;;;7.32;100.00
20119;BME280;10220;42.716;23.306;2023-02-19T01:53:21;95563.66;;;7.29;100.00
20119;BME280;10220;42.716;23.306;2023-02-19T01:55:54;95574.56;;;7.17;100.00
20119;BME280;10220;42.716;23.306;2023-02-19T01:58:21;95562.94;;;7.21;100.00
20119;BME280;10220;42.716;23.306;2023-02-19T02:00:47;95561.16;;;7.21;100.00
20119;BME280;10220;42.716;23.306;2023-02-19T02:03:12;95559.97;;;7.09;100.00
20119;BME280;10220;42.716;23.306;2023-02-19T02:05:47;95584.69;;;7.41;100.00
20119;BME280;10220;42.716;23.306;2023-02-19T02:08:15;95517.75;;;6.96;100.00
20119;BME280;10220;42.716;23.306;2023-02-19T02:11:01;95515.03;;;7.12;100.00
20119;BME280;10220;42.716;23.306;2023-02-19T02:13:27;95572.88;;;7.46;100.00
20119;BME280;10220;42.716;23.306;2023-02-19T02:16:07;95559.41;;;7.58;100.00
20119;BME280;10220;42.716;23.306;2023-02-19T02:22:11;95558.66;;;7.50;100.00
20119;BME280;10220;42.716;23.306;2023-02-19T02:32:32;95548.84;;;6.87;100.00
20119;BME280;10220;42.716;23.306;2023-02-19T02:35:10;95573.81;;;7.08;100.00
20119;BME280;10220;42.716;23.306;2023-02-19T02:37:38;95558.34;;;6.86;100.00
20119;BME280;10220;42.716;23.306;2023-02-19T02:40:07;95565.06;;;6.95;100.00
20119;BME280;10220;42.716;23.306;2023-02-19T02:42:34;95582.25;;;7.02;100.00
20119;BME280;10220;42.716;23.306;2023-02-19T02:45:31;95574.72;;;7.15;100.00
20119;BME280;10220;42.716;23.306;2023-02-19T02:48:27;95571.25;;;7.08;100.00
20119;BME280;10220;42.716;23.306;2023-02-19T02:56:18;95566.81;;;6.95;100.00
20119;BME280;10220;42.716;23.306;2023-02-19T02:58:45;95569.25;;;6.96;100.00
20119;BME280;10220;42.716;23.306;2023-02-19T03:01:18;95582.72;;;6.98;100.00
20119;BME280;10220;42.716;23.306;2023-02-19T03:04:08;95559.91;;;6.95;100.00
20119;BME280;10220;42.716;23.306;2023-02-19T03:06:36;95583.38;;;7.00;100.00
20119;BME280;10220;42.716;23.306;2023-02-19T03:09:18;95531.75;;;6.94;100.00
20119;BME280;10220;42.716;23.306;2023-02-19T03:11:48;95566.56;;;7.12;100.00
20119;BME280;10220;42.716;23.306;2023-02-19T03:14:45;95505.97;;;6.79;100.00
20119;BME280;10220;42.716;23.306;2023-02-19T03:17:49;95581.31;;;7.18;100.00
20119;BME280;10220;42.716;23.306;2023-02-19T03:20:37;95588.59;;;7.37;100.00
20119;BME280;10220;42.716;23.306;2023-02-19T03:23:05;95578.38;;;7.43;100.00
20119;BME280;10220;42.716;23.306;2023-02-19T03:25:34;95593.09;;;7.35;100.00
20119;BME280;10220;42.716;23.306;2023-02-19T03:28:22;95590.50;;;7.35;100.00
20119;BME280;10220;42.716;23.306;2023-02-19T03:31:15;95600.59;;;7.44;100.00
20119;BME280;10220;42.716;23.306;2023-02-19T03:33:43;95592.09;;;7.58;100.00
20119;BME280;10220;42.716;23.306;2023-02-19T03:36:12;95617.75;;;7.52;100.00
20119;BME280;10220;42.716;23.306;2023-02-19T03:38:48;95610.97;;;7.58;99.92
20119;BME280;10220;42.716;23.306;2023-02-19T03:44:22;95606.16;;;7.70;98.28
20119;BME280;10220;42.716;23.306;2023-02-19T03:47:02;95586.41;;;7.48;99.23
20119;BME280;10220;42.716;23.306;2023-02-19T03:52:26;95597.00;;;7.53;98.40
20119;BME280;10220;42.716;23.306;2023-02-19T03:55:45;95554.56;;;7.41;97.16
20119;BME280;10220;42.716;23.306;2023-02-19T03:58:25;95629.22;;;7.71;97.65
20119;BME280;10220;42.716;23.306;2023-02-19T04:00:57;95618.69;;;7.58;97.72
20119;BME280;10220;42.716;23.306;2023-02-19T04:03:39;95613.38;;;7.74;97.46
20119;BME280;10220;42.716;23.306;2023-02-19T04:06:12;95621.88;;;7.60;98.72
20119;BME280;10220;42.716;23.306;2023-02-19T04:08:40;95619.47;;;7.59;99.68
20119;BME280;10220;42.716;23.306;2023-02-19T04:11:07;95605.16;;;7.57;100.00
20119;BME280;10220;42.716;23.306;2023-02-19T04:13:38;95619.94;;;7.62;100.00
20119;BME280;10220;42.716;23.306;2023-02-19T04:16:12;95623.41;;;7.69;100.00
20119;BME280;10220;42.716;23.306;2023-02-19T04:18:40;95633.41;;;7.87;100.00
20119;BME280;10220;42.716;23.306;2023-02-19T04:21:09;95596.84;;;7.69;100.00
20119;BME280;10220;42.716;23.306;2023-02-19T04:23:38;95640.75;;;8.12;100.00
20119;BME280;10220;42.716;23.306;2023-02-19T04:26:05;95631.91;;;8.15;99.13
20119;BME280;10220;42.716;23.306;2023-02-19T04:28:32;95625.13;;;8.14;98.48
20119;BME280;10220;42.716;23.306;2023-02-19T04:30:58;95628.69;;;8.27;98.18
20119;BME280;10220;42.716;23.306;2023-02-19T04:33:23;95627.81;;;8.34;97.93
20119;BME280;10220;42.716;23.306;2023-02-19T04:35:49;95614.13;;;8.19;97.04
20119;BME280;10220;42.716;23.306;2023-02-19T04:38:14;95628.00;;;8.33;97.23
20119;BME280;10220;42.716;23.306;2023-02-19T04:40:40;95643.94;;;8.51;96.97
20119;BME280;10220;42.716;23.306;2023-02-19T04:43:05;95613.38;;;8.40;97.33
20119;BME280;10220;42.716;23.306;2023-02-19T04:45:30;95632.53;;;8.60;97.37
20119;BME280;10220;42.716;23.306;2023-02-19T04:47:57;95608.22;;;8.40;97.18
20119;BME280;10220;42.716;23.306;2023-02-19T04:50:23;95613.84;;;8.29;97.37
20119;BME280;10220;42.716;23.306;2023-02-19T04:52:48;95585.63;;;8.42;97.45
20119;BME280;10220;42.716;23.306;2023-02-19T04:55:14;95635.69;;;8.76;96.88
20119;BME280;10220;42.716;23.306;2023-02-19T04:57:39;95593.09;;;8.51;96.60
20119;BME280;10220;42.716;23.306;2023-02-19T05:00:05;95625.97;;;8.92;95.93
20119;BME280;10220;42.716;23.306;2023-02-19T05:02:32;95638.81;;;8.86;95.39
20119;BME280;10220;42.716;23.306;2023-02-19T05:04:58;95628.03;;;8.82;95.14
20119;BME280;10220;42.716;23.306;2023-02-19T05:07:23;95620.31;;;8.68;95.06
20119;BME280;10220;42.716;23.306;2023-02-19T05:09:49;95632.22;;;8.83;94.09
20119;BME280;10220;42.716;23.306;2023-02-19T05:12:14;95641.56;;;8.99;93.01
20119;BME280;10220;42.716;23.306;2023-02-19T05:14:39;95625.75;;;8.59;94.03
20119;BME280;10220;42.716;23.306;2023-02-19T05:17:05;95641.16;;;8.38;96.22
20119;BME280;10220;42.716;23.306;2023-02-19T05:19:30;95666.97;;;8.52;96.58
20119;BME280;10220;42.716;23.306;2023-02-19T05:21:56;95659.41;;;8.51;95.90
20119;BME280;10220;42.716;23.306;2023-02-19T05:24:21;95663.06;;;8.42;96.85
20119;BME280;10220;42.716;23.306;2023-02-19T05:26:48;95650.84;;;8.21;97.33
20119;BME280;10220;42.716;23.306;2023-02-19T05:29:14;95635.66;;;7.90;99.30
20119;BME280;10220;42.716;23.306;2023-02-19T05:31:40;95581.00;;;7.57;99.47
20119;BME280;10220;42.716;23.306;2023-02-19T05:34:05;95668.25;;;8.05;99.69
20119;BME280;10220;42.716;23.306;2023-02-19T05:36:31;95618.94;;;7.86;99.08
20119;BME280;10220;42.716;23.306;2023-02-19T05:38:57;95669.81;;;8.06;98.52
20119;BME280;10220;42.716;23.306;2023-02-19T05:41:27;95681.25;;;8.12;99.05
20119;BME280;10220;42.716;23.306;2023-02-19T05:43:54;95669.22;;;8.04;99.68
20119;BME280;10220;42.716;23.306;2023-02-19T05:46:22;95689.19;;;8.24;99.86
20119;BME280;10220;42.716;23.306;2023-02-19T05:48:48;95659.72;;;8.19;98.60
20119;BME280;10220;42.716;23.306;2023-02-19T05:51:16;95630.75;;;7.80;99.67
20119;BME280;10220;42.716;23.306;2023-02-19T05:53:42;95595.84;;;7.70;98.24
20119;BME280;10220;42.716;23.306;2023-02-19T05:56:34;95680.22;;;7.98;100.00
20119;BME280;10220;42.716;23.306;2023-02-19T05:59:07;95688.06;;;8.41;100.00
20119;BME280;10220;42.716;23.306;2023-02-19T06:01:34;95695.66;;;8.43;98.97
20119;BME280;10220;42.716;23.306;2023-02-19T06:04:00;95669.09;;;8.49;100.00
20119;BME280;10220;42.716;23.306;2023-02-19T06:06:26;95710.69;;;8.82;96.90
20119;BME280;10220;42.716;23.306;2023-02-19T06:08:51;95714.25;;;8.81;95.51
20119;BME280;10220;42.716;23.306;2023-02-19T06:11:18;95721.00;;;8.97;95.04
20119;BME280;10220;42.716;23.306;2023-02-19T06:13:44;95710.31;;;8.85;94.79
20119;BME280;10220;42.716;23.306;2023-02-19T06:16:10;95727.31;;;9.09;93.05
20119;BME280;10220;42.716;23.306;2023-02-19T06:18:36;95703.00;;;9.03;91.57
20119;BME280;10220;42.716;23.306;2023-02-19T06:21:06;95717.53;;;9.19;91.96
20119;BME280;10220;42.716;23.306;2023-02-19T06:23:31;95713.66;;;9.29;90.48
20119;BME280;10220;42.716;23.306;2023-02-19T06:28:32;95707.03;;;9.41;97.70
20119;BME280;10220;42.716;23.306;2023-02-19T06:30:58;95725.28;;;9.54;91.01
20119;BME280;10220;42.716;23.306;2023-02-19T06:33:25;95675.59;;;9.37;91.60
20119;BME280;10220;42.716;23.306;2023-02-19T06:35:52;95700.91;;;9.63;87.70
20119;BME280;10220;42.716;23.306;2023-02-19T06:38:20;95721.19;;;9.45;86.15
20119;BME280;10220;42.716;23.306;2023-02-19T06:40:45;95725.66;;;9.51;85.73
20119;BME280;10220;42.716;23.306;2023-02-19T06:43:10;95729.03;;;9.51;87.55
20119;BME280;10220;42.716;23.306;2023-02-19T06:45:36;95716.06;;;9.66;84.85
20119;BME280;10220;42.716;23.306;2023-02-19T06:48:01;95715.78;;;9.61;84.23
20119;BME280;10220;42.716;23.306;2023-02-19T06:50:27;95728.53;;;10.18;85.21
20119;BME280;10220;42.716;23.306;2023-02-19T06:52:52;95728.00;;;9.67;83.31
20119;BME280;10220;42.716;23.306;2023-02-19T06:55:17;95726.47;;;9.93;83.96
20119;BME280;10220;42.716;23.306;2023-02-19T06:57:43;95696.38;;;9.50;84.34
20119;BME280;10220;42.716;23.306;2023-02-19T07:00:09;95728.41;;;9.85;84.65
20119;BME280;10220;42.716;23.306;2023-02-19T07:02:35;95698.38;;;9.69;84.84
20119;BME280;10220;42.716;23.306;2023-02-19T07:05:00;95713.69;;;10.06;85.71
20119;BME280;10220;42.716;23.306;2023-02-19T07:07:27;95664.31;;;9.66;88.37
20119;BME280;10220;42.716;23.306;2023-02-19T07:09:52;95697.72;;;10.23;85.11
20119;BME280;10220;42.716;23.306;2023-02-19T07:12:17;95706.31;;;10.03;83.32
20119;BME280;10220;42.716;23.306;2023-02-19T07:14:43;95733.88;;;10.38;83.99
20119;BME280;10220;42.716;23.306;2023-02-19T07:17:09;95693.69;;;10.42;87.99
20119;BME280;10220;42.716;23.306;2023-02-19T07:19:34;95696.97;;;10.90;81.70
20119;BME280;10220;42.716;23.306;2023-02-19T07:22:00;95680.47;;;10.98;81.79
20119;BME280;10220;42.716;23.306;2023-02-19T07:24:25;95705.56;;;10.91;82.19
20119;BME280;10220;42.716;23.306;2023-02-19T07:26:50;95717.13;;;11.41;83.00
20119;BME280;10220;42.716;23.306;2023-02-19T07:29:16;95687.06;;;11.07;81.18
20119;BME280;10220;42.716;23.306;2023-02-19T07:31:41;95694.16;;;11.32;82.68
20119;BME280;10220;42.716;23.306;2023-02-19T07:34:07;95696.47;;;11.67;80.76
20119;BME280;10220;42.716;23.306;2023-02-19T07:36:32;95697.16;;;11.95;78.00
20119;BME280;10220;42.716;23.306;2023-02-19T07:38:58;95703.56;;;12.18;74.95
20119;BME280;10220;42.716;23.306;2023-02-19T07:41:25;95700.16;;;12.30;74.64
20119;BME280;10220;42.716;23.306;2023-02-19T07:43:52;95716.53;;;12.63;74.70
20119;BME280;10220;42.716;23.306;2023-02-19T07:46:18;95702.75;;;12.56;70.31
20119;BME280;10220;42.716;23.306;2023-02-19T07:48:44;95703.88;;;13.05;68.69
20119;BME280;10220;42.716;23.306;2023-02-19T07:51:12;95682.38;;;12.53;69.56
20119;BME280;10220;42.716;23.306;2023-02-19T07:53:38;95682.91;;;12.88;69.53
20119;BME280;10220;42.716;23.306;2023-02-19T07:56:06;95657.31;;;12.91;68.89
20119;BME280;10220;42.716;23.306;2023-02-19T07:58:33;95695.09;;;13.00;66.63
20119;BME280;10220;42.716;23.306;2023-02-19T08:01:28;95687.63;;;13.16;64.88
20119;BME280;10220;42.716;23.306;2023-02-19T08:04:13;95666.63;;;13.11;63.37
20119;BME280;10220;42.716;23.306;2023-02-19T08:06:40;95686.50;;;13.49;63.95
20119;BME280;10220;42.716;23.306;2023-02-19T08:09:06;95691.81;;;13.67;60.77
20119;BME280;10220;42.716;23.306;2023-02-19T08:11:32;95678.72;;;13.80;60.28
20119;BME280;10220;42.716;23.306;2023-02-19T08:14:15;95690.59;;;13.70;58.58
20119;BME280;10220;42.716;23.306;2023-02-19T08:16:49;95699.38;;;13.75;58.16
20119;BME280;10220;42.716;23.306;2023-02-19T08:19:14;95664.34;;;13.71;58.37
20119;BME280;10220;42.716;23.306;2023-02-19T08:21:39;95691.53;;;14.12;57.39
20119;BME280;10220;42.716;23.306;2023-02-19T08:24:05;95676.69;;;14.19;56.54
20119;BME280;10220;42.716;23.306;2023-02-19T08:26:31;95684.22;;;14.27;55.18
20119;BME280;10220;42.716;23.306;2023-02-19T08:28:57;95648.38;;;14.23;54.94
20119;BME280;10220;42.716;23.306;2023-02-19T08:31:23;95680.19;;;14.56;54.58
20119;BME280;10220;42.716;23.306;2023-02-19T08:33:49;95683.78;;;14.97;54.67
20119;BME280;10220;42.716;23.306;2023-02-19T08:36:14;95685.63;;;14.72;54.22
20119;BME280;10220;42.716;23.306;2023-02-19T08:38:40;95677.47;;;15.04;53.92
20119;BME280;10220;42.716;23.306;2023-02-19T08:41:07;95676.09;;;15.20;53.58
20119;BME280;10220;42.716;23.306;2023-02-19T08:43:33;95673.50;;;15.20;52.82
20119;BME280;10220;42.716;23.306;2023-02-19T08:45:59;95644.03;;;15.13;52.66
20119;BME280;10220;42.716;23.306;2023-02-19T08:48:24;95662.69;;;15.52;52.33
20119;BME280;10220;42.716;23.306;2023-02-19T08:50:58;95659.00;;;15.41;51.69
20119;BME280;10220;42.716;23.306;2023-02-19T08:53:24;95661.09;;;15.91;51.30
20119;BME280;10220;42.716;23.306;2023-02-19T08:55:50;95630.56;;;15.63;50.53
20119;BME280;10220;42.716;23.306;2023-02-19T08:58:16;95643.47;;;15.76;50.96
20119;BME280;10220;42.716;23.306;2023-02-19T09:00:42;95632.63;;;15.61;51.17
20119;BME280;10220;42.716;23.306;2023-02-19T09:03:08;95642.09;;;15.44;51.49
20119;BME280;10220;42.716;23.306;2023-02-19T09:05:33;95639.44;;;15.62;50.67
20119;BME280;10220;42.716;23.306;2023-02-19T09:07:58;95634.84;;;15.75;50.69
20119;BME280;10220;42.716;23.306;2023-02-19T09:10:24;95639.78;;;15.65;51.69
20119;BME280;10220;42.716;23.306;2023-02-19T09:12:49;95615.09;;;15.79;51.88
20119;BME280;10220;42.716;23.306;2023-02-19T09:15:15;95619.44;;;15.67;51.36
20119;BME280;10220;42.716;23.306;2023-02-19T09:17:40;95617.25;;;15.82;51.71
20119;BME280;10220;42.716;23.306;2023-02-19T09:20:06;95624.69;;;15.67;51.50
20119;BME280;10220;42.716;23.306;2023-02-19T09:22:31;95636.72;;;15.97;51.11
20119;BME280;10220;42.716;23.306;2023-02-19T09:24:57;95637.41;;;16.04;50.56
20119;BME280;10220;42.716;23.306;2023-02-19T09:27:22;95622.41;;;16.00;50.82
20119;BME280;10220;42.716;23.306;2023-02-19T09:29:47;95624.19;;;15.88;51.22
20119;BME280;10220;42.716;23.306;2023-02-19T09:32:13;95627.00;;;16.27;50.78
20119;BME280;10220;42.716;23.306;2023-02-19T09:34:38;95577.03;;;16.06;50.28
20119;BME280;10220;42.716;23.306;2023-02-19T09:37:05;95625.44;;;16.38;50.79
20119;BME280;10220;42.716;23.306;2023-02-19T09:39:31;95587.41;;;16.12;50.34
20119;BME280;10220;42.716;23.306;2023-02-19T09:42:00;95611.72;;;16.01;51.00
20119;BME280;10220;42.716;23.306;2023-02-19T09:44:33;95634.44;;;16.12;50.48
20119;BME280;10220;42.716;23.306;2023-02-19T09:47:00;95621.44;;;15.94;50.99
20119;BME280;10220;42.716;23.306;2023-02-19T09:51:59;95602.31;;;16.23;50.83
20119;BME280;10220;42.716;23.306;2023-02-19T09:54:29;95564.66;;;16.24;51.54
20119;BME280;10220;42.716;23.306;2023-02-19T09:56:57;95602.88;;;16.82;50.21
20119;BME280;10220;42.716;23.306;2023-02-19T09:59:26;95594.13;;;16.65;49.71
20119;BME280;10220;42.716;23.306;2023-02-19T10:02:18;95584.91;;;16.74;49.37
20119;BME280;10220;42.716;23.306;2023-02-19T10:04:45;95583.81;;;16.98;49.58
20119;BME280;10220;42.716;23.306;2023-02-19T10:07:13;95564.38;;;17.33;50.25
20119;BME280;10220;42.716;23.306;2023-02-19T10:09:39;95563.66;;;17.65;47.84
20119;BME280;10220;42.716;23.306;2023-02-19T10:12:13;95565.84;;;17.41;46.94
20119;BME280;10220;42.716;23.306;2023-02-19T10:14:44;95529.47;;;16.77;46.66
20119;BME280;10220;42.716;23.306;2023-02-19T10:17:20;95545.94;;;16.89;47.46
20119;BME280;10220;42.716;23.306;2023-02-19T10:19:47;95539.84;;;16.72;47.36
20119;BME280;10220;42.716;23.306;2023-02-19T10:22:12;95519.75;;;16.61;46.53
20119;BME280;10220;42.716;23.306;2023-02-19T10:24:39;95533.66;;;17.01;46.75
20119;BME280;10220;42.716;23.306;2023-02-19T10:27:11;95526.06;;;16.88;46.93
20119;BME280;10220;42.716;23.306;2023-02-19T10:29:37;95530.47;;;16.88;46.12
20119;BME280;10220;42.716;23.306;2023-02-19T10:32:13;95511.44;;;16.64;46.68
20119;BME280;10220;42.716;23.306;2023-02-19T10:34:39;95468.91;;;16.85;46.28
20119;BME280;10220;42.716;23.306;2023-02-19T10:37:10;95518.44;;;16.87;46.81
20119;BME280;10220;42.716;23.306;2023-02-19T10:39:41;95498.53;;;17.41;45.98
20119;BME280;10220;42.716;23.306;2023-02-19T10:42:19;95482.25;;;17.39;45.68
20119;BME280;10220;42.716;23.306;2023-02-19T10:44:52;95464.88;;;17.66;45.68
20119;BME280;10220;42.716;23.306;2023-02-19T10:47:24;95474.72;;;17.59;44.31
20119;BME280;10220;42.716;23.306;2023-02-19T10:49:52;95468.03;;;17.68;45.19
20119;BME280;10220;42.716;23.306;2023-02-19T10:52:26;95475.66;;;17.69;44.62
20119;BME280;10220;42.716;23.306;2023-02-19T10:54:55;95468.63;;;17.70;44.13
20119;BME280;10220;42.716;23.306;2023-02-19T10:57:27;95436.34;;;17.69;44.30
20119;BME280;10220;42.716;23.306;2023-02-19T11:00:01;95447.44;;;17.93;45.79
20119;BME280;10220;42.716;23.306;2023-02-19T11:02:29;95440.25;;;18.37;43.84
20119;BME280;10220;42.716;23.306;2023-02-19T11:05:15;95444.41;;;18.38;43.27
20119;BME280;10220;42.716;23.306;2023-02-19T11:12:47;95426.72;;;18.29;43.50
20119;BME280;10220;42.716;23.306;2023-02-19T11:17:44;95403.38;;;18.11;43.53
20119;BME280;10220;42.716;23.306;2023-02-19T11:20:14;95405.88;;;18.01;43.07
20119;BME280;10220;42.716;23.306;2023-02-19T11:22:43;95410.50;;;17.94;44.21
20119;BME280;10220;42.716;23.306;2023-02-19T11:30:44;95385.94;;;18.64;42.75
20119;BME280;10220;42.716;23.306;2023-02-19T11:35:45;95381.75;;;18.42;41.61
20119;BME280;10220;42.716;23.306;2023-02-19T11:38:13;95366.84;;;18.69;43.29
20119;BME280;10220;42.716;23.306;2023-02-19T11:43:43;95356.69;;;18.77;42.06
20119;BME280;10220;42.716;23.306;2023-02-19T11:49:34;95353.06;;;18.83;40.96
20119;BME280;10220;42.716;23.306;2023-02-19T11:52:10;95356.22;;;18.85;40.96
20119;BME280;10220;42.716;23.306;2023-02-19T11:59:51;95356.97;;;19.07;40.74
20119;BME280;10220;42.716;23.306;2023-02-19T12:02:28;95341.53;;;19.10;39.73
20119;BME280;10220;42.716;23.306;2023-02-19T12:27:24;95284.63;;;19.26;39.04
20119;BME280;10220;42.716;23.306;2023-02-19T12:43:21;95254.53;;;19.48;38.32
20119;BME280;10220;42.716;23.306;2023-02-19T12:48:40;95250.84;;;19.49;38.50
20119;BME280;10220;42.716;23.306;2023-02-19T12:51:41;95237.13;;;19.37;38.42
20119;BME280;10220;42.716;23.306;2023-02-19T12:54:29;95238.56;;;19.64;38.27
20119;BME280;10220;42.716;23.306;2023-02-19T12:57:14;95218.16;;;19.86;37.59
20119;BME280;10220;42.716;23.306;2023-02-19T13:04:57;95204.13;;;19.66;38.22
20119;BME280;10220;42.716;23.306;2023-02-19T13:07:39;95171.97;;;19.39;37.66
20119;BME280;10220;42.716;23.306;2023-02-19T13:12:53;95200.66;;;19.50;38.04
20119;BME280;10220;42.716;23.306;2023-02-19T13:15:30;95187.19;;;19.32;37.71
20119;BME280;10220;42.716;23.306;2023-02-19T13:17:59;95196.44;;;19.44;38.49
20119;BME280;10220;42.716;23.306;2023-02-19T13:20:38;95197.50;;;19.48;38.02
20119;BME280;10220;42.716;23.306;2023-02-19T13:28:54;95170.34;;;19.33;38.65
20119;BME280;10220;42.716;23.306;2023-02-19T13:36:58;95151.25;;;19.57;38.27
20119;BME280;10220;42.716;23.306;2023-02-19T13:39:24;95158.91;;;19.64;38.11
20119;BME280;10220;42.716;23.306;2023-02-19T13:41:52;95158.16;;;19.78;38.13
20119;BME280;10220;42.716;23.306;2023-02-19T13:44:20;95150.28;;;19.78;37.72
20119;BME280;10220;42.716;23.306;2023-02-19T13:46:49;95158.97;;;19.89;37.26
20119;BME280;10220;42.716;23.306;2023-02-19T13:49:38;95142.06;;;19.60;37.60
20119;BME280;10220;42.716;23.306;2023-02-19T13:52:33;95137.31;;;19.47;37.92
20119;BME280;10220;42.716;23.306;2023-02-19T14:01:02;95133.91;;;19.46;37.58
20119;BME280;10220;42.716;23.306;2023-02-19T14:03:51;95135.13;;;19.29;37.90
20119;BME280;10220;42.716;23.306;2023-02-19T14:06:17;95115.31;;;19.07;38.21
20119;BME280;10220;42.716;23.306;2023-02-19T14:11:14;95132.44;;;19.14;38.29
20119;BME280;10220;42.716;23.306;2023-02-19T14:18:52;95116.72;;;18.78;38.75
20119;BME280;10220;42.716;23.306;2023-02-19T14:21:36;95125.50;;;19.03;38.20
20119;BME280;10220;42.716;23.306;2023-02-19T14:24:03;95073.03;;;18.57;38.68
20119;BME280;10220;42.716;23.306;2023-02-19T14:26:33;95095.66;;;18.68;38.41
20119;BME280;10220;42.716;23.306;2023-02-19T14:28:59;95118.69;;;18.97;39.19
20119;BME280;10220;42.716;23.306;2023-02-19T14:33:57;95111.31;;;18.99;38.62
20119;BME280;10220;42.716;23.306;2023-02-19T14:39:18;95110.53;;;18.99;38.88
20119;BME280;10220;42.716;23.306;2023-02-19T14:41:48;95093.19;;;18.98;38.77
20119;BME280;10220;42.716;23.306;2023-02-19T14:44:21;95085.41;;;19.18;39.09
20119;BME280;10220;42.716;23.306;2023-02-19T14:47:03;95101.66;;;19.10;39.69
20119;BME280;10220;42.716;23.306;2023-02-19T14:49:48;95097.19;;;19.05;41.15
20119;BME280;10220;42.716;23.306;2023-02-19T14:52:42;95100.94;;;18.73;41.68
20119;BME280;10220;42.716;23.306;2023-02-19T14:55:31;95094.41;;;18.76;41.54
20119;BME280;10220;42.716;23.306;2023-02-19T14:58:02;95068.16;;;18.76;41.77
20119;BME280;10220;42.716;23.306;2023-02-19T15:00:33;95091.75;;;18.71;42.23
20119;BME280;10220;42.716;23.306;2023-02-19T15:02:59;95083.91;;;18.76;41.30
20119;BME280;10220;42.716;23.306;2023-02-19T15:07:56;95091.25;;;18.79;41.93
20119;BME280;10220;42.716;23.306;2023-02-19T15:10:23;95096.94;;;18.61;42.57
20119;BME280;10220;42.716;23.306;2023-02-19T15:12:53;95084.53;;;18.51;42.17
20119;BME280;10220;42.716;23.306;2023-02-19T15:15:22;95095.97;;;18.35;42.71
20119;BME280;10220;42.716;23.306;2023-02-19T15:17:49;95077.91;;;18.39;42.71
20119;BME280;10220;42.716;23.306;2023-02-19T15:20:18;95092.56;;;18.35;43.29
20119;BME280;10220;42.716;23.306;2023-02-19T15:22:44;95104.03;;;18.24;43.79